createdAt,value
2019-03-20T00:01:20.639Z,100.95
2019-03-20T00:03:50.786Z,101.20
2019-03-20T00:06:20.880Z,101.42
2019-03-20T00:08:51.020Z,97.22
2019-03-20T00:11:21.197Z,95.38
2019-03-20T00:13:51.142Z,94.77
2019-03-20T00:16:21.145Z,107.17
2019-03-20T00:18:51.227Z,107.50
2019-03-20T00:21:23.269Z,103.83
2019-03-20T00:23:53.374Z,104.47
2019-03-20T00:26:23.335Z,113.88
2019-03-20T00:28:53.290Z,112.70
2019-03-20T00:31:23.242Z,115.47
2019-03-20T00:33:53.204Z,112.45
2019-03-20T00:36:23.153Z,135.70
2019-03-20T00:38:53.182Z,133.75
2019-03-20T00:41:23.200Z,129.80
2019-03-20T00:43:53.213Z,111.37
2019-03-20T00:46:23.222Z,110.65
2019-03-20T00:48:53.712Z,119.10
2019-03-20T00:51:23.699Z,113.60
2019-03-20T00:53:53.692Z,112.50
2019-03-20T00:56:23.718Z,109.80
2019-03-20T00:58:53.823Z,98.10
2019-03-20T01:01:23.891Z,103.75
2019-03-20T01:03:53.895Z,103.22
2019-03-20T01:06:24.120Z,97.80
2019-03-20T01:08:54.224Z,115.90
2019-03-20T01:11:24.166Z,100.07
2019-03-20T01:13:54.329Z,107.72
2019-03-20T01:16:24.424Z,108.67
2019-03-20T01:18:54.519Z,105.40
2019-03-20T01:21:24.615Z,105.67
2019-03-20T01:24:06.861Z,92.35
2019-03-20T01:26:36.792Z,107.83
2019-03-20T01:29:06.935Z,109.25
2019-03-20T01:31:36.880Z,108.90
2019-03-20T01:34:06.887Z,106.92
2019-03-20T01:36:36.974Z,106.43
2019-03-20T01:39:07.226Z,109.17
2019-03-20T01:41:38.240Z,118.10
2019-03-20T01:44:08.554Z,103.35
2019-03-20T01:46:38.545Z,113.17
2019-03-20T01:49:10.573Z,112.50
2019-03-20T01:51:40.522Z,109.92
2019-03-20T01:54:10.599Z,107.58
2019-03-20T01:56:40.548Z,115.57
2019-03-20T01:59:10.531Z,118.60
2019-03-20T02:01:40.711Z,118.28
2019-03-20T02:04:10.688Z,118.20
2019-03-20T02:06:40.636Z,123.87
2019-03-20T02:09:10.588Z,124.15
2019-03-20T02:11:42.652Z,131.43
2019-03-20T02:14:12.649Z,132.27
2019-03-20T02:16:42.724Z,128.15
2019-03-20T02:19:12.711Z,131.25
2019-03-20T02:21:42.678Z,129.42
2019-03-20T02:24:13.107Z,134.75
2019-03-20T02:26:43.256Z,133.67
2019-03-20T02:29:13.516Z,137.37
2019-03-20T02:31:43.908Z,139.18
2019-03-20T02:34:13.912Z,155.25
2019-03-20T02:36:44.258Z,153.42
2019-03-20T02:39:14.554Z,166.32
2019-03-20T02:41:44.619Z,166.28
2019-03-20T02:44:15.723Z,144.70
2019-03-20T02:46:45.778Z,165.70
2019-03-20T02:49:16.032Z,168.95
2019-03-20T02:51:46.060Z,161.47
2019-03-20T02:54:16.016Z,159.18
2019-03-20T02:56:46.088Z,164.22
2019-03-20T02:59:19.243Z,169.85
2019-03-20T03:01:49.275Z,158.30
2019-03-20T03:04:19.231Z,173.62
2019-03-20T03:06:49.575Z,162.65
2019-03-20T03:09:19.663Z,149.87
2019-03-20T03:11:49.694Z,156.78
2019-03-20T03:14:19.696Z,152.65
2019-03-20T03:16:49.674Z,172.95
2019-03-20T03:19:19.978Z,179.40
2019-03-20T03:21:50.016Z,167.82
2019-03-20T03:24:20.438Z,176.07
2019-03-20T03:26:50.410Z,167.03
2019-03-20T03:29:20.350Z,175.55
2019-03-20T03:31:50.339Z,165.92
2019-03-20T03:34:20.436Z,171.62
2019-03-20T03:36:50.620Z,166.35
2019-03-20T03:39:20.622Z,166.80
2019-03-20T03:41:50.716Z,166.73
2019-03-20T03:44:20.691Z,166.62
2019-03-20T03:46:50.739Z,166.68
2019-03-20T03:49:21.783Z,171.30
2019-03-20T03:51:52.012Z,162.12
2019-03-20T03:54:22.030Z,161.12
2019-03-20T03:56:52.668Z,165.12
2019-03-20T03:59:22.648Z,150.18
2019-03-20T04:01:52.689Z,168.43
2019-03-20T04:04:22.079Z,155.07
2019-03-20T04:06:52.176Z,167.60
2019-03-20T04:09:21.827Z,161.53
2019-03-20T04:11:51.289Z,159.87
2019-03-20T04:14:21.339Z,160.15
2019-03-20T04:16:51.566Z,149.40
2019-03-20T04:19:21.708Z,150.50
2019-03-20T04:21:52.062Z,159.72
2019-03-20T04:24:22.327Z,154.95
2019-03-20T04:26:52.506Z,163.15
2019-03-20T04:29:22.568Z,153.87
2019-03-20T04:31:52.686Z,166.10
2019-03-20T04:34:23.093Z,170.53
2019-03-20T04:36:53.094Z,187.00
2019-03-20T04:39:23.071Z,168.97
2019-03-20T04:41:53.079Z,181.35
2019-03-20T04:44:23.239Z,179.70
2019-03-20T04:46:53.316Z,174.70
2019-03-20T04:49:24.738Z,174.40
2019-03-20T04:51:55.373Z,182.40
2019-03-20T04:54:25.490Z,179.93
2019-03-20T04:56:55.539Z,185.10
2019-03-20T04:59:25.544Z,204.32
2019-03-20T05:01:55.485Z,204.30
2019-03-20T05:04:25.539Z,190.60
2019-03-20T05:06:59.157Z,198.23
2019-03-20T05:09:27.950Z,203.88
2019-03-20T05:11:58.005Z,191.15
2019-03-20T05:14:27.988Z,209.22
2019-03-20T05:16:57.910Z,202.40
2019-03-20T05:19:27.919Z,206.60
2019-03-20T05:21:57.994Z,205.00
2019-03-20T05:24:40.759Z,205.67
2019-03-20T05:27:10.782Z,215.00
2019-03-20T05:29:40.762Z,227.28
2019-03-20T05:32:10.722Z,227.53
2019-03-20T05:34:40.691Z,226.95
2019-03-20T05:37:11.010Z,222.52
2019-03-20T05:39:41.431Z,230.57
2019-03-20T05:42:10.887Z,224.60
2019-03-20T05:44:40.887Z,224.95
2019-03-20T05:47:10.909Z,242.10
2019-03-20T05:49:40.889Z,244.25
2019-03-20T05:52:10.907Z,262.42
2019-03-20T05:54:40.972Z,263.25
2019-03-20T05:57:12.617Z,299.00
2019-03-20T05:59:42.868Z,240.55
2019-03-20T06:02:12.823Z,253.27
2019-03-20T06:04:42.826Z,219.10
2019-03-20T06:07:21.068Z,274.32
2019-03-20T06:09:44.775Z,230.07
2019-03-20T06:12:14.855Z,225.62
2019-03-20T06:14:44.851Z,207.30
2019-03-20T06:17:14.809Z,220.20
2019-03-20T06:19:44.770Z,213.40
2019-03-20T06:22:14.765Z,213.75
2019-03-20T06:24:45.669Z,223.07
2019-03-20T06:27:15.634Z,216.20
2019-03-20T06:29:45.705Z,215.00
2019-03-20T06:32:15.676Z,218.12
2019-03-20T06:34:45.694Z,216.78
2019-03-20T06:37:15.697Z,221.80
2019-03-20T06:39:45.901Z,220.70
2019-03-20T06:42:15.849Z,213.68
2019-03-20T06:44:45.916Z,207.50
2019-03-20T06:47:15.849Z,207.60
2019-03-20T06:49:45.898Z,198.50
2019-03-20T06:52:15.836Z,216.05
2019-03-20T06:54:45.803Z,174.40
2019-03-20T06:57:15.901Z,185.10
2019-03-20T07:00:06.687Z,202.97
2019-03-20T07:02:38.736Z,197.07
2019-03-20T07:05:29.590Z,199.30
2019-03-20T07:07:59.776Z,201.88
2019-03-20T07:10:32.952Z,193.43
2019-03-20T07:13:03.288Z,180.35
2019-03-20T07:15:33.311Z,187.00
2019-03-20T07:18:03.380Z,186.55
2019-03-20T07:20:33.610Z,198.38
2019-03-20T07:23:03.675Z,183.50
2019-03-20T07:25:34.588Z,170.20
2019-03-20T07:28:04.967Z,166.32
2019-03-20T07:30:36.527Z,161.25
2019-03-20T07:33:06.477Z,174.85
2019-03-20T07:35:36.475Z,170.40
2019-03-20T07:38:06.512Z,179.93
2019-03-20T07:40:36.525Z,158.80
2019-03-20T07:43:09.206Z,167.40
2019-03-20T07:45:38.221Z,161.80
2019-03-20T07:48:08.334Z,156.52
2019-03-20T07:50:38.300Z,148.68
2019-03-20T07:53:08.471Z,152.53
2019-03-20T07:55:38.410Z,145.65
2019-03-20T07:58:08.739Z,132.50
2019-03-20T08:00:38.700Z,137.03
2019-03-20T08:03:08.719Z,126.15
2019-03-20T08:05:38.663Z,112.70
2019-03-20T08:08:08.698Z,113.12
2019-03-20T08:10:38.824Z,102.87
2019-03-20T08:13:08.946Z,73.10
2019-03-20T08:15:39.024Z,86.82
2019-03-20T08:18:14.084Z,111.47
2019-03-20T08:20:44.268Z,105.55
2019-03-20T08:23:14.223Z,85.97
2019-03-20T08:25:44.991Z,84.70
2019-03-20T08:28:18.324Z,81.90
2019-03-20T08:30:48.263Z,64.45
2019-03-20T08:33:18.295Z,53.85
2019-03-20T08:35:48.375Z,71.12
2019-03-20T08:38:19.015Z,81.35
2019-03-20T08:40:49.498Z,100.80
2019-03-20T08:43:19.596Z,120.08
2019-03-20T08:45:49.631Z,116.70
2019-03-20T08:48:19.603Z,103.80
2019-03-20T08:50:49.726Z,96.60
2019-03-20T08:53:19.909Z,93.78
2019-03-20T08:55:49.968Z,84.42
2019-03-20T08:58:20.007Z,85.87
2019-03-20T09:00:51.095Z,76.10
2019-03-20T09:03:21.172Z,91.57
2019-03-20T09:05:51.180Z,92.37
2019-03-20T09:08:29.471Z,68.52
2019-03-20T09:10:53.043Z,87.10
2019-03-20T09:13:23.100Z,54.25
2019-03-20T09:15:53.163Z,36.40
2019-03-20T09:18:23.466Z,46.48
2019-03-20T09:20:53.411Z,51.85
2019-03-20T09:23:23.422Z,56.37
2019-03-20T09:25:55.047Z,38.53
2019-03-20T09:28:24.985Z,31.55
2019-03-20T09:30:55.010Z,33.65
2019-03-20T09:33:25.281Z,29.87
2019-03-20T09:35:55.298Z,36.63
2019-03-20T09:38:25.540Z,41.77
2019-03-20T09:40:55.569Z,38.38
2019-03-20T09:43:25.683Z,37.60
2019-03-20T09:45:56.989Z,34.63
2019-03-20T09:48:28.348Z,36.95
2019-03-20T09:50:58.348Z,32.60
2019-03-20T09:53:28.469Z,24.55
2019-03-20T09:55:58.495Z,25.35
2019-03-20T09:58:28.458Z,18.52
2019-03-20T10:00:58.837Z,23.47
2019-03-20T10:03:28.955Z,24.23
2019-03-20T10:05:58.920Z,28.50
2019-03-20T10:08:29.004Z,29.92
2019-03-20T10:10:58.936Z,27.65
2019-03-20T10:13:28.888Z,28.35
2019-03-20T10:15:59.146Z,26.80
2019-03-20T10:18:29.174Z,26.95
2019-03-20T10:20:59.131Z,24.30
2019-03-20T10:23:29.153Z,27.02
2019-03-20T10:25:59.168Z,31.40
2019-03-20T10:28:29.375Z,29.67
2019-03-20T10:30:59.419Z,26.02
2019-03-20T10:33:29.418Z,27.67
2019-03-20T10:35:59.562Z,24.12
2019-03-20T10:38:29.645Z,31.37
2019-03-20T10:40:59.765Z,27.65
2019-03-20T10:43:29.934Z,33.60
2019-03-20T10:46:00.075Z,32.48
2019-03-20T10:48:30.121Z,32.55
2019-03-20T10:51:00.136Z,32.63
2019-03-20T10:53:30.090Z,32.33
2019-03-20T10:55:59.913Z,29.77
2019-03-20T10:58:29.868Z,34.45
2019-03-20T11:00:59.656Z,38.70
2019-03-20T11:03:29.651Z,35.78
2019-03-20T11:05:59.583Z,35.55
2019-03-20T11:08:29.560Z,38.85
2019-03-20T11:10:59.794Z,69.40
2019-03-20T11:13:29.843Z,52.23
2019-03-20T11:15:59.906Z,30.52
2019-03-20T11:18:29.924Z,20.50
2019-03-20T11:20:59.992Z,21.80
2019-03-20T11:23:30.044Z,21.85
2019-03-20T11:26:00.203Z,19.40
2019-03-20T11:28:30.313Z,23.12
2019-03-20T11:31:01.109Z,28.30
2019-03-20T11:33:31.120Z,27.15
2019-03-20T11:36:01.079Z,24.07
2019-03-20T11:38:31.108Z,28.23
2019-03-20T11:41:01.169Z,24.60
2019-03-20T11:43:31.104Z,23.80
2019-03-20T11:46:01.122Z,21.95
2019-03-20T11:48:33.335Z,22.20
2019-03-20T11:51:02.768Z,18.30
2019-03-20T11:53:32.713Z,16.32
2019-03-20T11:56:02.665Z,21.37
2019-03-20T11:58:32.613Z,20.95
2019-03-20T12:01:02.574Z,17.20
2019-03-20T12:03:33.578Z,16.40
2019-03-20T12:06:03.800Z,17.42
2019-03-20T12:08:33.881Z,18.10
2019-03-20T12:11:04.049Z,28.38
2019-03-20T12:13:34.078Z,18.32
2019-03-20T12:16:04.237Z,19.52
2019-03-20T12:18:34.278Z,21.42
2019-03-20T12:21:04.972Z,18.80
2019-03-20T12:23:34.949Z,17.95
2019-03-20T12:26:05.568Z,16.57
2019-03-20T12:28:35.571Z,19.95
2019-03-20T12:31:06.765Z,23.60
2019-03-20T12:33:36.943Z,24.10
2019-03-20T12:36:07.184Z,23.92
2019-03-20T12:38:37.296Z,23.90
2019-03-20T12:41:07.263Z,21.73
2019-03-20T12:43:37.339Z,22.67
2019-03-20T12:46:07.271Z,19.73
2019-03-20T12:48:37.236Z,19.17
2019-03-20T12:51:07.296Z,20.30
2019-03-20T12:53:37.304Z,22.62
2019-03-20T12:56:07.229Z,21.42
2019-03-20T12:58:37.235Z,20.08
2019-03-20T13:01:07.323Z,23.60
2019-03-20T13:03:37.258Z,18.55
2019-03-20T13:06:07.249Z,18.70
2019-03-20T13:08:37.347Z,20.57
2019-03-20T13:11:07.328Z,21.95
2019-03-20T13:13:37.379Z,23.57
2019-03-20T13:16:07.358Z,18.90
2019-03-20T13:18:37.314Z,19.90
2019-03-20T13:21:07.268Z,21.50
2019-03-20T13:23:38.060Z,21.87
2019-03-20T13:26:08.107Z,22.37
2019-03-20T13:28:40.835Z,19.25
2019-03-20T13:31:20.142Z,21.55
2019-03-20T13:33:50.166Z,21.30
2019-03-20T13:36:20.307Z,22.52
2019-03-20T13:38:50.388Z,26.75
2019-03-20T13:41:20.644Z,23.12
2019-03-20T13:43:50.584Z,25.25
2019-03-20T13:46:20.701Z,21.15
2019-03-20T13:48:50.671Z,23.32
2019-03-20T13:51:20.619Z,20.90
2019-03-20T13:53:50.595Z,24.72
2019-03-20T13:56:22.233Z,21.97
2019-03-20T13:58:52.479Z,22.00
2019-03-20T14:01:22.523Z,24.65
2019-03-20T14:03:52.702Z,21.73
2019-03-20T14:06:22.696Z,20.05
2019-03-20T14:08:52.966Z,22.60
2019-03-20T14:11:22.957Z,23.98
2019-03-20T14:13:52.992Z,25.05
2019-03-20T14:16:22.942Z,30.32
2019-03-20T14:18:53.228Z,27.52
2019-03-20T14:21:23.228Z,24.67
2019-03-20T14:23:52.908Z,22.67
2019-03-20T14:26:22.911Z,29.50
2019-03-20T14:28:52.978Z,22.30
2019-03-20T14:31:23.547Z,22.15
2019-03-20T14:33:53.507Z,21.45
2019-03-20T14:36:23.425Z,22.35
2019-03-20T14:38:53.409Z,20.27
2019-03-20T14:41:23.082Z,24.92
2019-03-20T14:43:53.026Z,24.67
2019-03-20T14:46:22.842Z,23.80
2019-03-20T14:48:52.407Z,23.02
2019-03-20T14:51:23.660Z,19.42
2019-03-20T14:53:54.138Z,22.62
2019-03-20T14:56:25.946Z,20.95
2019-03-20T14:58:55.470Z,19.25
2019-03-20T15:01:26.463Z,21.95
2019-03-20T15:03:56.425Z,23.87
2019-03-20T15:06:26.560Z,24.32
2019-03-20T15:08:56.528Z,21.85
2019-03-20T15:11:26.532Z,23.27
2019-03-20T15:13:56.190Z,25.60
2019-03-20T15:16:26.024Z,26.40
2019-03-20T15:18:56.059Z,24.05
2019-03-20T15:21:26.114Z,26.12
2019-03-20T15:23:55.731Z,31.48
2019-03-20T15:26:25.246Z,20.62
2019-03-20T15:28:54.854Z,27.60
2019-03-20T15:31:24.696Z,29.07
2019-03-20T15:33:55.647Z,27.40
2019-03-20T15:36:25.639Z,24.25
2019-03-20T15:38:55.594Z,23.67
2019-03-20T15:41:25.631Z,24.05
2019-03-20T15:44:02.451Z,21.80
2019-03-20T15:46:33.884Z,24.80
2019-03-20T15:49:03.906Z,27.20
2019-03-20T15:51:33.868Z,27.50
2019-03-20T15:54:03.992Z,22.13
2019-03-20T15:56:33.998Z,26.07
2019-03-20T15:59:04.673Z,27.80
2019-03-20T16:01:34.548Z,24.70
2019-03-20T16:04:04.346Z,26.75
2019-03-20T16:06:34.083Z,22.70
2019-03-20T16:09:05.544Z,26.45
2019-03-20T16:11:35.383Z,21.42
2019-03-20T16:14:05.245Z,23.87
2019-03-20T16:16:35.047Z,20.80
2019-03-20T16:19:04.744Z,25.32
2019-03-20T16:21:34.295Z,24.92
2019-03-20T16:24:04.428Z,26.73
2019-03-20T16:26:34.166Z,23.90
2019-03-20T16:29:03.783Z,20.35
2019-03-20T16:31:33.429Z,26.42
2019-03-20T16:34:03.835Z,23.62
2019-03-20T16:36:33.628Z,26.15
2019-03-20T16:39:05.024Z,25.60
2019-03-20T16:41:35.199Z,28.95
2019-03-20T16:44:05.596Z,25.60
2019-03-20T16:46:35.540Z,25.68
2019-03-20T16:49:05.568Z,28.45
2019-03-20T16:51:35.722Z,27.10
2019-03-20T16:54:05.839Z,26.60
2019-03-20T16:56:36.104Z,24.45
2019-03-20T16:59:06.203Z,23.18
2019-03-20T17:01:36.298Z,24.63
2019-03-20T17:04:06.210Z,29.23
2019-03-20T17:06:36.164Z,23.57
2019-03-20T17:09:07.551Z,23.77
2019-03-20T17:11:38.535Z,24.82
2019-03-20T17:14:08.770Z,25.75
2019-03-20T17:16:42.624Z,25.32
2019-03-20T17:19:10.705Z,22.77
2019-03-20T17:21:40.491Z,24.15
2019-03-20T17:24:10.412Z,25.32
2019-03-20T17:26:40.406Z,23.87
2019-03-20T17:29:10.596Z,25.05
2019-03-20T17:31:40.969Z,26.40
2019-03-20T17:34:11.751Z,29.30
2019-03-20T17:36:41.881Z,26.93
2019-03-20T17:39:11.567Z,26.93
2019-03-20T17:41:41.495Z,26.12
2019-03-20T17:44:11.508Z,29.27
2019-03-20T17:46:41.511Z,28.20
2019-03-20T17:49:11.710Z,31.05
2019-03-20T17:51:42.155Z,29.67
2019-03-20T17:54:12.193Z,28.52
2019-03-20T17:56:42.289Z,26.40
2019-03-20T17:59:13.294Z,25.82
2019-03-20T18:01:43.856Z,27.87
2019-03-20T18:04:14.142Z,37.53
2019-03-20T18:06:44.252Z,25.50
2019-03-20T18:09:14.208Z,34.25
2019-03-20T18:11:47.641Z,30.10
2019-03-20T18:14:16.938Z,30.00
2019-03-20T18:16:47.045Z,30.43
2019-03-20T18:19:17.264Z,29.90
2019-03-20T18:21:47.497Z,34.20
2019-03-20T18:24:17.847Z,36.60
2019-03-20T18:26:49.135Z,33.73
2019-03-20T18:29:20.306Z,33.50
2019-03-20T18:31:50.931Z,34.25
2019-03-20T18:34:21.867Z,33.40
2019-03-20T18:36:52.246Z,36.08
2019-03-20T18:39:22.262Z,38.80
2019-03-20T18:41:57.832Z,37.53
2019-03-20T18:44:23.889Z,39.08
2019-03-20T18:46:54.113Z,36.88
2019-03-20T18:49:24.148Z,40.88
2019-03-20T18:51:54.098Z,42.20
2019-03-20T18:54:24.103Z,45.12
2019-03-20T18:56:54.051Z,42.45
2019-03-20T18:59:24.237Z,39.88
2019-03-20T19:01:54.285Z,44.13
2019-03-20T19:04:24.482Z,42.88
2019-03-20T19:06:54.779Z,39.75
2019-03-20T19:09:25.013Z,44.18
2019-03-20T19:11:55.147Z,45.73
2019-03-20T19:14:25.487Z,45.38
2019-03-20T19:16:55.623Z,43.80
2019-03-20T19:19:25.843Z,47.08
2019-03-20T19:21:55.969Z,45.92
2019-03-20T19:24:25.976Z,45.35
2019-03-20T19:26:56.210Z,51.90
2019-03-20T19:29:26.300Z,50.17
2019-03-20T19:31:57.449Z,49.80
2019-03-20T19:34:28.262Z,49.15
2019-03-20T19:36:58.314Z,54.15
2019-03-20T19:39:28.306Z,48.48
2019-03-20T19:41:58.544Z,55.03
2019-03-20T19:44:28.666Z,50.58
2019-03-20T19:46:59.029Z,58.98
2019-03-20T19:49:29.016Z,61.85
2019-03-20T19:51:59.092Z,53.98
2019-03-20T19:54:29.838Z,57.95
2019-03-20T19:56:59.980Z,57.93
2019-03-20T19:59:31.651Z,58.20
2019-03-20T20:02:01.611Z,62.03
2019-03-20T20:04:31.691Z,61.85
2019-03-20T20:07:01.857Z,62.17
2019-03-20T20:09:31.996Z,66.97
2019-03-20T20:12:02.036Z,65.80
2019-03-20T20:14:32.058Z,71.02
2019-03-20T20:17:02.226Z,72.37
2019-03-20T20:19:32.538Z,59.88
2019-03-20T20:22:02.682Z,72.70
2019-03-20T20:24:32.812Z,71.00
2019-03-20T20:27:02.923Z,70.55
2019-03-20T20:29:32.880Z,73.17
2019-03-20T20:32:02.891Z,75.30
2019-03-20T20:34:33.820Z,79.03
2019-03-20T20:37:03.930Z,78.22
2019-03-20T20:39:34.444Z,87.90
2019-03-20T20:42:04.387Z,86.72
2019-03-20T20:44:35.477Z,84.32
2019-03-20T20:47:05.866Z,85.12
2019-03-20T20:49:39.062Z,79.62
2019-03-20T20:52:18.969Z,88.37
2019-03-20T20:54:40.971Z,103.05
2019-03-20T20:57:11.160Z,108.65
2019-03-20T20:59:41.223Z,100.72
2019-03-20T21:02:10.847Z,95.05
2019-03-20T21:04:40.692Z,105.25
2019-03-20T21:07:11.639Z,104.87
2019-03-20T21:09:41.906Z,101.97
2019-03-20T21:12:12.047Z,107.00
2019-03-20T21:14:42.111Z,97.37
2019-03-20T21:17:15.778Z,109.25
2019-03-20T21:19:45.893Z,101.07
2019-03-20T21:22:33.279Z,102.07
2019-03-20T21:25:04.330Z,94.83
2019-03-20T21:27:58.414Z,96.10
2019-03-20T21:30:37.340Z,98.97
2019-03-20T21:33:28.247Z,106.83
2019-03-20T21:36:27.143Z,99.10
2019-03-20T21:38:58.162Z,104.03
2019-03-20T21:41:31.197Z,103.70
2019-03-20T21:44:18.643Z,101.70
2019-03-20T21:47:18.649Z,110.65
2019-03-20T21:49:49.017Z,117.67
2019-03-20T21:52:18.749Z,109.55
2019-03-20T21:55:06.407Z,121.72
2019-03-20T21:57:37.523Z,119.00
2019-03-20T22:00:40.504Z,113.05
2019-03-20T22:03:10.382Z,112.88
2019-03-20T22:05:41.575Z,115.55
2019-03-20T22:08:11.113Z,123.58
2019-03-20T22:10:42.235Z,117.70
2019-03-20T22:13:18.486Z,124.65
2019-03-20T22:15:46.145Z,118.40
2019-03-20T22:18:33.752Z,122.47
2019-03-20T22:21:29.617Z,122.13
2019-03-20T22:24:21.067Z,121.82
2019-03-20T22:27:16.443Z,133.63
2019-03-20T22:29:46.706Z,131.43
2019-03-20T22:32:18.025Z,127.12
2019-03-20T22:34:52.213Z,130.20
2019-03-20T22:37:23.015Z,134.03
2019-03-20T22:40:10.920Z,122.30
2019-03-20T22:42:48.199Z,141.20
2019-03-20T22:45:31.537Z,134.37
2019-03-20T22:48:17.470Z,137.80
2019-03-20T22:51:02.535Z,139.20
2019-03-20T22:53:41.473Z,141.45
2019-03-20T22:56:30.658Z,146.45
2019-03-20T22:59:00.627Z,143.28
2019-03-20T23:01:45.529Z,142.30
2019-03-20T23:04:33.143Z,145.82
2019-03-20T23:07:03.377Z,145.12
2019-03-20T23:09:33.403Z,147.07
2019-03-20T23:12:08.193Z,147.55
2019-03-20T23:14:38.327Z,144.32
2019-03-20T23:17:08.400Z,148.38
2019-03-20T23:19:39.907Z,149.47
2019-03-20T23:22:10.547Z,151.63
2019-03-20T23:24:40.739Z,147.05
2019-03-20T23:27:17.301Z,149.30
2019-03-20T23:29:47.247Z,149.30
2019-03-20T23:32:17.269Z,149.45
2019-03-20T23:34:47.277Z,145.40
2019-03-20T23:37:17.394Z,150.45
2019-03-20T23:39:48.352Z,145.92
2019-03-20T23:42:18.450Z,149.95
2019-03-20T23:44:48.163Z,149.95
2019-03-20T23:47:19.431Z,146.87
2019-03-20T23:49:49.400Z,154.93
2019-03-20T23:52:19.619Z,143.02
2019-03-20T23:54:49.713Z,146.13
2019-03-20T23:57:19.405Z,157.62
2019-03-20T23:59:49.062Z,140.97
